createdAt,value
2018-03-25T00:01:21.733Z,-0.62
2018-03-25T00:03:47.808Z,-0.49
2018-03-25T00:06:13.825Z,-0.42
2018-03-25T00:08:39.813Z,-0.34
2018-03-25T00:11:05.844Z,-0.36
2018-03-25T00:13:31.881Z,-0.56
2018-03-25T00:15:57.913Z,-0.50
2018-03-25T00:18:23.907Z,-0.36
2018-03-25T00:20:49.909Z,-0.55
2018-03-25T00:23:15.965Z,-0.85
2018-03-25T00:25:41.974Z,-0.79
2018-03-25T00:28:08.013Z,-0.62
2018-03-25T00:30:34.113Z,-0.54
2018-03-25T00:33:00.114Z,-0.60
2018-03-25T00:35:26.046Z,-0.67
2018-03-25T00:37:52.096Z,-0.62
2018-03-25T00:40:18.255Z,-0.53
2018-03-25T00:42:44.333Z,-0.74
2018-03-25T00:45:10.386Z,-0.80
2018-03-25T00:47:36.400Z,-0.65
2018-03-25T00:50:02.381Z,-0.68
2018-03-25T00:52:28.401Z,-1.00
2018-03-25T00:54:54.462Z,-0.88
2018-03-25T00:57:20.476Z,-0.80
2018-03-25T00:59:46.491Z,-1.12
2018-03-25T01:02:12.462Z,-0.86
2018-03-25T01:04:38.890Z,-0.87
2018-03-25T01:07:04.935Z,-0.84
2018-03-25T01:09:31.001Z,-0.80
2018-03-25T01:11:57.015Z,-0.88
2018-03-25T01:14:23.197Z,-1.04
2018-03-25T01:16:49.340Z,-1.30
2018-03-25T01:19:15.364Z,-1.35
2018-03-25T01:21:41.454Z,-1.21
2018-03-25T01:24:07.437Z,-1.16
2018-03-25T01:26:33.498Z,-1.19
2018-03-25T01:28:59.454Z,-1.10
2018-03-25T01:31:25.542Z,-1.16
2018-03-25T01:33:51.529Z,-1.14
2018-03-25T01:36:17.530Z,-1.17
2018-03-25T01:38:43.507Z,-1.15
2018-03-25T01:41:09.511Z,-1.33
2018-03-25T01:43:35.771Z,-1.47
2018-03-25T01:46:01.842Z,-1.29
2018-03-25T01:48:27.857Z,-1.17
2018-03-25T01:50:53.857Z,-1.25
2018-03-25T01:53:19.910Z,-1.32
2018-03-25T01:55:45.901Z,-1.33
2018-03-25T01:58:11.921Z,-1.43
2018-03-25T02:00:37.930Z,-1.36
2018-03-25T02:03:03.976Z,-1.39
2018-03-25T02:05:29.947Z,-1.43
2018-03-25T02:07:55.961Z,-1.44
2018-03-25T02:10:21.969Z,-1.68
2018-03-25T02:12:48.037Z,-1.71
2018-03-25T02:15:14.015Z,-1.69
2018-03-25T02:17:40.040Z,-1.73
2018-03-25T02:20:06.053Z,-1.75
2018-03-25T02:22:32.018Z,-1.65
2018-03-25T02:24:58.037Z,-1.56
2018-03-25T02:27:24.261Z,-1.55
2018-03-25T02:29:50.232Z,-1.61
2018-03-25T02:32:16.260Z,-1.77
2018-03-25T02:34:42.282Z,-1.58
2018-03-25T02:37:08.305Z,-1.77
2018-03-25T02:39:34.321Z,-1.83
2018-03-25T02:42:00.381Z,-1.85
2018-03-25T02:44:26.388Z,-1.97
2018-03-25T02:46:52.537Z,-1.82
2018-03-25T02:49:18.533Z,-1.81
2018-03-25T02:51:44.541Z,-1.97
2018-03-25T02:54:10.586Z,-1.85
2018-03-25T02:56:36.594Z,-1.90
2018-03-25T02:59:02.611Z,-1.82
2018-03-25T03:01:28.630Z,-1.72
2018-03-25T03:03:54.654Z,-1.70
2018-03-25T03:06:20.674Z,-1.90
2018-03-25T03:08:46.704Z,-1.72
2018-03-25T03:11:12.718Z,-1.74
2018-03-25T03:13:38.761Z,-1.75
2018-03-25T03:16:04.804Z,-1.89
2018-03-25T03:18:30.760Z,-2.04
2018-03-25T03:20:56.830Z,-2.04
2018-03-25T03:23:22.853Z,-2.14
2018-03-25T03:25:48.838Z,-2.20
2018-03-25T03:28:14.853Z,-2.07
2018-03-25T03:30:40.871Z,-1.91
2018-03-25T03:33:06.913Z,-1.87
2018-03-25T03:35:32.966Z,-1.98
2018-03-25T03:37:58.985Z,-1.97
2018-03-25T03:40:25.026Z,-1.99
2018-03-25T03:42:51.042Z,-1.96
2018-03-25T03:45:17.034Z,-2.04
2018-03-25T03:47:43.083Z,-2.09
2018-03-25T03:50:09.066Z,-2.12
2018-03-25T03:52:35.084Z,-2.07
2018-03-25T03:55:01.128Z,-2.02
2018-03-25T03:57:27.214Z,-2.13
2018-03-25T03:59:53.212Z,-2.13
2018-03-25T04:02:19.253Z,-2.11
2018-03-25T04:04:45.340Z,-2.08
2018-03-25T04:07:11.349Z,-2.04
2018-03-25T04:09:37.370Z,-2.19
2018-03-25T04:12:03.361Z,-2.29
2018-03-25T04:14:29.381Z,-2.27
2018-03-25T04:16:55.452Z,-2.43
2018-03-25T04:19:21.489Z,-2.26
2018-03-25T04:21:47.485Z,-2.27
2018-03-25T04:24:13.508Z,-2.23
2018-03-25T04:26:39.513Z,-2.32
2018-03-25T04:29:05.513Z,-2.32
2018-03-25T04:31:31.563Z,-2.30
2018-03-25T04:33:57.545Z,-2.32
2018-03-25T04:36:23.588Z,-2.25
2018-03-25T04:38:49.537Z,-2.27
2018-03-25T04:41:15.547Z,-2.35
2018-03-25T04:43:41.481Z,-2.40
2018-03-25T04:46:07.497Z,-2.52
2018-03-25T04:48:33.512Z,-2.57
2018-03-25T04:50:59.530Z,-2.58
2018-03-25T04:53:25.554Z,-2.64
2018-03-25T04:55:51.779Z,-2.72
2018-03-25T04:58:17.808Z,-2.70
2018-03-25T05:00:43.876Z,-2.72
2018-03-25T05:03:09.894Z,-2.56
2018-03-25T05:05:35.838Z,-2.52
2018-03-25T05:08:01.867Z,-2.57
2018-03-25T05:10:27.898Z,-2.64
2018-03-25T05:12:53.954Z,-2.72
2018-03-25T05:15:20.018Z,-2.59
2018-03-25T05:17:46.073Z,-2.64
2018-03-25T05:20:12.061Z,-2.72
2018-03-25T05:22:38.057Z,-2.77
2018-03-25T05:25:04.107Z,-2.79
2018-03-25T05:27:30.080Z,-2.78
2018-03-25T05:29:56.094Z,-2.80
2018-03-25T05:32:22.102Z,-2.83
2018-03-25T05:34:48.149Z,-2.67
2018-03-25T05:37:14.152Z,-2.55
2018-03-25T05:39:40.145Z,-2.61
2018-03-25T05:42:06.105Z,-2.58
2018-03-25T05:44:32.161Z,-2.41
2018-03-25T05:46:58.161Z,-2.44
2018-03-25T05:49:24.231Z,-2.53
2018-03-25T05:51:50.241Z,-2.48
2018-03-25T05:54:16.268Z,-2.44
2018-03-25T05:56:42.390Z,-2.30
2018-03-25T05:59:08.384Z,-2.61
2018-03-25T06:01:34.433Z,-2.37
2018-03-25T06:04:00.555Z,-2.32
2018-03-25T06:06:26.595Z,-2.28
2018-03-25T06:08:52.653Z,-2.16
2018-03-25T06:11:18.775Z,-2.15
2018-03-25T06:13:44.865Z,-2.09
2018-03-25T06:16:10.799Z,-2.05
2018-03-25T06:18:36.856Z,-1.82
2018-03-25T06:21:02.926Z,-1.86
2018-03-25T06:23:28.976Z,-1.78
2018-03-25T06:25:54.957Z,-1.75
2018-03-25T06:28:21.056Z,-1.70
2018-03-25T06:30:47.080Z,-1.58
2018-03-25T06:33:13.193Z,-1.53
2018-03-25T06:35:39.261Z,-1.48
2018-03-25T06:38:05.309Z,-1.34
2018-03-25T06:40:31.372Z,-1.21
2018-03-25T06:42:57.365Z,-1.12
2018-03-25T06:45:23.393Z,-1.03
2018-03-25T06:47:49.425Z,-1.05
2018-03-25T06:50:15.470Z,-1.06
2018-03-25T06:52:41.490Z,-0.76
2018-03-25T06:55:07.591Z,-0.58
2018-03-25T06:57:33.693Z,-0.17
2018-03-25T06:59:59.692Z,0.00
2018-03-25T07:02:25.734Z,0.20
2018-03-25T07:04:51.767Z,0.25
2018-03-25T07:07:17.792Z,0.57
2018-03-25T07:09:43.766Z,0.93
2018-03-25T07:12:09.757Z,1.29
2018-03-25T07:14:35.738Z,1.40
2018-03-25T07:17:01.839Z,1.70
2018-03-25T07:19:27.853Z,2.05
2018-03-25T07:21:53.888Z,1.78
2018-03-25T07:24:20.282Z,2.27
2018-03-25T07:26:46.311Z,2.27
2018-03-25T07:29:12.334Z,2.35
2018-03-25T07:31:38.325Z,2.62
2018-03-25T07:34:04.364Z,2.92
2018-03-25T07:36:30.423Z,3.25
2018-03-25T07:38:56.434Z,3.25
2018-03-25T07:41:22.429Z,3.54
2018-03-25T07:43:48.522Z,3.68
2018-03-25T07:46:14.589Z,3.63
2018-03-25T07:48:40.605Z,3.80
2018-03-25T07:51:06.674Z,3.89
2018-03-25T07:53:32.695Z,3.99
2018-03-25T07:55:58.671Z,4.20
2018-03-25T07:58:24.740Z,4.01
2018-03-25T08:00:50.715Z,3.81
2018-03-25T08:03:16.739Z,4.13
2018-03-25T08:05:43.238Z,4.36
2018-03-25T08:08:09.321Z,4.11
2018-03-25T08:10:35.273Z,4.25
2018-03-25T08:13:01.281Z,4.22
2018-03-25T08:15:27.358Z,4.27
2018-03-25T08:17:53.402Z,4.68
2018-03-25T08:20:19.490Z,4.68
2018-03-25T08:22:45.662Z,4.76
2018-03-25T08:25:11.692Z,4.92
2018-03-25T08:27:37.957Z,4.93
2018-03-25T08:30:04.045Z,5.14
2018-03-25T08:32:30.070Z,5.28
2018-03-25T08:34:56.034Z,5.35
2018-03-25T08:37:22.005Z,5.44
2018-03-25T08:39:48.010Z,5.55
2018-03-25T08:42:14.060Z,5.79
2018-03-25T08:44:40.912Z,5.76
2018-03-25T08:47:06.983Z,5.56
2018-03-25T08:49:32.993Z,5.51
2018-03-25T08:51:58.997Z,5.53
2018-03-25T08:54:25.061Z,5.96
2018-03-25T08:56:51.079Z,6.28
2018-03-25T08:59:17.116Z,6.06
2018-03-25T09:01:43.129Z,6.25
2018-03-25T09:04:09.264Z,6.23
2018-03-25T09:06:35.296Z,6.12
2018-03-25T09:09:01.424Z,6.18
2018-03-25T09:11:27.549Z,6.34
2018-03-25T09:13:53.718Z,6.58
2018-03-25T09:16:20.134Z,6.72
2018-03-25T09:18:46.244Z,6.66
2018-03-25T09:21:12.329Z,6.68
2018-03-25T09:23:38.502Z,6.79
2018-03-25T09:26:04.520Z,6.47
2018-03-25T09:28:30.963Z,6.74
2018-03-25T09:30:57.017Z,6.91
2018-03-25T09:33:23.200Z,7.06
2018-03-25T09:35:49.353Z,7.18
2018-03-25T09:38:15.637Z,7.42
2018-03-25T09:40:41.718Z,7.48
2018-03-25T09:43:07.738Z,7.29
2018-03-25T09:45:33.763Z,7.38
2018-03-25T09:47:59.815Z,7.67
2018-03-25T09:50:25.918Z,7.69
2018-03-25T09:52:51.932Z,7.83
2018-03-25T09:55:17.966Z,7.79
2018-03-25T09:57:44.001Z,7.74
2018-03-25T10:00:10.037Z,8.00
2018-03-25T10:02:41.023Z,7.89
2018-03-25T10:05:07.073Z,7.90
2018-03-25T10:07:33.132Z,8.03
2018-03-25T10:09:59.188Z,8.24
2018-03-25T10:12:25.221Z,8.33
2018-03-25T10:14:51.262Z,8.54
2018-03-25T10:17:17.350Z,8.57
2018-03-25T10:19:43.485Z,8.53
2018-03-25T10:22:09.613Z,8.57
2018-03-25T10:24:35.710Z,8.58
2018-03-25T10:27:01.711Z,8.55
2018-03-25T10:29:27.764Z,8.71
2018-03-25T10:31:53.784Z,8.89
2018-03-25T10:34:19.826Z,8.65
2018-03-25T10:36:45.826Z,8.32
2018-03-25T10:39:11.870Z,8.82
2018-03-25T10:41:37.893Z,8.80
2018-03-25T10:44:03.962Z,8.88
2018-03-25T10:46:30.174Z,9.24
2018-03-25T10:48:56.196Z,9.40
2018-03-25T10:51:22.222Z,9.33
2018-03-25T10:53:48.303Z,9.56
2018-03-25T10:56:14.354Z,9.60
2018-03-25T10:58:40.374Z,9.80
2018-03-25T11:01:06.408Z,9.73
2018-03-25T11:03:32.382Z,9.38
2018-03-25T11:05:58.429Z,9.52
2018-03-25T11:08:24.440Z,9.97
2018-03-25T11:10:50.503Z,9.82
2018-03-25T11:13:16.449Z,9.58
2018-03-25T11:15:42.462Z,10.22
2018-03-25T11:18:08.514Z,10.43
2018-03-25T11:20:34.546Z,10.73
2018-03-25T11:23:00.597Z,10.70
2018-03-25T11:25:26.649Z,10.18
2018-03-25T11:27:52.669Z,10.78
2018-03-25T11:30:18.766Z,11.19
2018-03-25T11:32:44.785Z,11.56
2018-03-25T11:35:10.808Z,11.75
2018-03-25T11:37:36.864Z,11.00
2018-03-25T11:40:02.902Z,10.66
2018-03-25T11:42:29.010Z,11.34
2018-03-25T11:44:55.085Z,11.18
2018-03-25T11:47:21.113Z,11.47
2018-03-25T11:49:47.133Z,11.04
2018-03-25T11:52:13.131Z,10.72
2018-03-25T11:54:39.223Z,11.81
2018-03-25T11:57:05.279Z,12.17
2018-03-25T11:59:31.271Z,12.55
2018-03-25T12:01:57.314Z,12.62
2018-03-25T12:04:23.317Z,12.48
2018-03-25T12:06:49.369Z,12.53
2018-03-25T12:09:15.393Z,12.64
2018-03-25T12:11:41.921Z,12.83
2018-03-25T12:14:07.951Z,13.32
2018-03-25T12:16:33.966Z,13.74
2018-03-25T12:19:00.010Z,13.64
2018-03-25T12:21:26.109Z,13.94
2018-03-25T12:23:52.145Z,14.07
2018-03-25T12:26:18.101Z,14.21
2018-03-25T12:28:44.134Z,14.34
2018-03-25T12:31:10.141Z,14.68
2018-03-25T12:33:36.155Z,14.24
2018-03-25T12:36:02.233Z,14.53
2018-03-25T12:38:28.254Z,14.49
2018-03-25T12:40:54.264Z,14.59
2018-03-25T12:43:20.272Z,14.62
2018-03-25T12:45:46.304Z,14.69
2018-03-25T12:48:12.309Z,14.68
2018-03-25T12:50:38.950Z,14.56
2018-03-25T12:53:04.978Z,14.82
2018-03-25T12:55:31.045Z,14.76
2018-03-25T12:57:57.074Z,15.10
2018-03-25T13:00:23.098Z,14.76
2018-03-25T13:02:49.105Z,15.10
2018-03-25T13:05:15.168Z,15.49
2018-03-25T13:07:41.297Z,15.59
2018-03-25T13:10:07.355Z,15.86
2018-03-25T13:12:33.458Z,15.93
2018-03-25T13:14:59.486Z,15.79
2018-03-25T13:17:25.560Z,15.63
2018-03-25T13:19:51.581Z,15.68
2018-03-25T13:22:18.371Z,15.62
2018-03-25T13:24:44.412Z,15.33
2018-03-25T13:27:10.503Z,15.30
2018-03-25T13:29:36.589Z,15.41
2018-03-25T13:32:02.744Z,15.62
2018-03-25T13:34:28.788Z,15.71
2018-03-25T13:36:54.794Z,15.97
2018-03-25T13:39:20.845Z,15.80
2018-03-25T13:41:46.898Z,16.44
2018-03-25T13:44:13.001Z,16.37
2018-03-25T13:46:39.072Z,16.49
2018-03-25T13:49:05.065Z,16.24
2018-03-25T13:51:31.073Z,16.49
2018-03-25T13:53:57.235Z,16.61
2018-03-25T13:56:23.262Z,16.48
2018-03-25T13:58:49.338Z,16.05
2018-03-25T14:01:15.582Z,15.98
2018-03-25T14:03:42.006Z,16.17
2018-03-25T14:06:08.079Z,16.08
2018-03-25T14:08:34.125Z,16.38
2018-03-25T14:11:00.165Z,16.72
2018-03-25T14:13:26.205Z,16.65
2018-03-25T14:15:52.245Z,15.78
2018-03-25T14:18:18.271Z,16.62
2018-03-25T14:20:44.303Z,15.68
2018-03-25T14:23:10.379Z,16.63
2018-03-25T14:25:36.365Z,16.76
2018-03-25T14:28:02.424Z,17.05
2018-03-25T14:30:28.441Z,16.80
2018-03-25T14:32:54.498Z,16.96
2018-03-25T14:35:20.530Z,16.89
2018-03-25T14:37:46.551Z,17.08
2018-03-25T14:40:12.618Z,16.68
2018-03-25T14:42:38.649Z,16.06
2018-03-25T14:45:04.675Z,16.91
2018-03-25T14:47:30.789Z,16.89
2018-03-25T14:49:56.825Z,16.91
2018-03-25T14:52:22.962Z,16.77
2018-03-25T14:54:49.153Z,16.00
2018-03-25T14:57:15.182Z,15.79
2018-03-25T14:59:41.258Z,15.89
2018-03-25T15:02:07.270Z,16.06
2018-03-25T15:04:33.312Z,16.25
2018-03-25T15:06:59.418Z,14.82
2018-03-25T15:09:25.423Z,15.47
2018-03-25T15:11:51.533Z,16.46
2018-03-25T15:14:17.639Z,16.66
2018-03-25T15:16:43.679Z,16.78
2018-03-25T15:19:09.752Z,17.07
2018-03-25T15:21:36.196Z,16.68
2018-03-25T15:24:02.282Z,16.23
2018-03-25T15:26:28.311Z,15.65
2018-03-25T15:28:54.406Z,16.02
2018-03-25T15:31:20.486Z,15.36
2018-03-25T15:33:47.372Z,14.70
2018-03-25T15:36:13.414Z,14.24
2018-03-25T15:38:39.462Z,13.91
2018-03-25T15:41:05.582Z,13.42
2018-03-25T15:43:31.589Z,13.11
2018-03-25T15:45:57.602Z,13.97
2018-03-25T15:48:23.660Z,13.46
2018-03-25T15:50:49.721Z,13.48
2018-03-25T15:53:15.748Z,12.65
2018-03-25T15:55:41.962Z,12.57
2018-03-25T15:58:08.124Z,12.54
2018-03-25T16:00:34.109Z,12.70
2018-03-25T16:03:00.135Z,12.53
2018-03-25T16:05:26.165Z,12.13
2018-03-25T16:07:52.205Z,12.16
2018-03-25T16:10:18.188Z,12.10
2018-03-25T16:12:44.246Z,11.98
2018-03-25T16:15:10.298Z,11.93
2018-03-25T16:17:36.322Z,11.69
2018-03-25T16:20:02.386Z,11.64
2018-03-25T16:22:28.415Z,11.68
2018-03-25T16:24:54.529Z,11.62
2018-03-25T16:27:20.752Z,11.64
2018-03-25T16:29:46.815Z,11.61
2018-03-25T16:32:12.909Z,11.46
2018-03-25T16:34:39.010Z,11.59
2018-03-25T16:37:05.014Z,11.61
2018-03-25T16:39:31.097Z,11.54
2018-03-25T16:41:57.141Z,11.59
2018-03-25T16:44:23.232Z,11.44
2018-03-25T16:46:49.273Z,11.50
2018-03-25T16:49:15.472Z,11.59
2018-03-25T16:51:41.593Z,11.50
2018-03-25T16:54:07.607Z,11.49
2018-03-25T16:56:33.698Z,11.30
2018-03-25T16:58:59.723Z,11.17
2018-03-25T17:01:25.755Z,11.23
2018-03-25T17:03:51.780Z,11.23
2018-03-25T17:06:18.181Z,11.13
2018-03-25T17:08:44.169Z,11.12
2018-03-25T17:11:10.254Z,11.13
2018-03-25T17:13:36.338Z,11.09
2018-03-25T17:16:02.388Z,11.23
2018-03-25T17:18:28.443Z,11.09
2018-03-25T17:20:54.508Z,10.84
2018-03-25T17:23:20.615Z,10.70
2018-03-25T17:25:46.616Z,10.41
2018-03-25T17:28:12.774Z,10.26
2018-03-25T17:30:38.807Z,10.20
2018-03-25T17:33:04.842Z,10.05
2018-03-25T17:35:30.896Z,9.71
2018-03-25T17:37:56.923Z,9.45
2018-03-25T17:40:23.030Z,9.45
2018-03-25T17:42:49.044Z,9.28
2018-03-25T17:45:15.181Z,9.26
2018-03-25T17:47:41.225Z,9.15
2018-03-25T17:50:07.292Z,9.11
2018-03-25T17:52:33.350Z,9.03
2018-03-25T17:54:59.329Z,8.98
2018-03-25T17:57:25.385Z,8.82
2018-03-25T17:59:51.529Z,8.84
2018-03-25T18:02:17.587Z,8.76
2018-03-25T18:04:43.611Z,8.61
2018-03-25T18:07:09.648Z,8.41
2018-03-25T18:09:35.730Z,8.35
2018-03-25T18:12:01.753Z,8.35
2018-03-25T18:14:28.919Z,8.28
2018-03-25T18:16:54.977Z,8.20
2018-03-25T18:19:21.112Z,8.11
2018-03-25T18:21:47.110Z,8.01
2018-03-25T18:24:13.148Z,8.10
2018-03-25T18:26:39.252Z,8.22
2018-03-25T18:29:05.286Z,8.37
2018-03-25T18:31:31.325Z,8.40
2018-03-25T18:33:57.389Z,8.19
2018-03-25T18:36:23.426Z,8.14
2018-03-25T18:38:49.472Z,8.03
2018-03-25T18:41:15.534Z,7.93
2018-03-25T18:43:41.687Z,7.86
2018-03-25T18:46:07.702Z,7.80
2018-03-25T18:48:33.828Z,7.71
2018-03-25T18:50:59.869Z,7.16
2018-03-25T18:53:26.014Z,7.30
2018-03-25T18:55:52.046Z,7.53
2018-03-25T18:58:18.103Z,7.65
2018-03-25T19:00:44.205Z,7.45
2018-03-25T19:03:10.187Z,7.16
2018-03-25T19:05:36.326Z,6.90
2018-03-25T19:08:02.406Z,6.63
2018-03-25T19:10:28.441Z,6.47
2018-03-25T19:12:54.482Z,6.43
2018-03-25T19:15:20.524Z,6.19
2018-03-25T19:17:46.560Z,6.04
2018-03-25T19:20:12.643Z,6.01
2018-03-25T19:22:38.724Z,5.87
2018-03-25T19:25:04.911Z,5.75
2018-03-25T19:27:30.991Z,6.02
2018-03-25T19:29:57.870Z,5.88
2018-03-25T19:32:23.889Z,5.85
2018-03-25T19:34:49.937Z,5.79
2018-03-25T19:37:15.997Z,5.13
2018-03-25T19:40:12.319Z,5.19
2018-03-25T19:42:38.556Z,5.26
2018-03-25T19:45:04.591Z,5.18
2018-03-25T19:47:30.626Z,4.81
2018-03-25T19:49:56.701Z,4.62
2018-03-25T19:52:22.726Z,4.64
2018-03-25T19:54:48.924Z,4.65
2018-03-25T19:57:14.960Z,4.60
2018-03-25T19:59:41.029Z,4.67
2018-03-25T20:02:07.082Z,4.75
2018-03-25T20:04:33.971Z,4.77
2018-03-25T20:07:00.074Z,4.62
2018-03-25T20:09:26.127Z,4.34
2018-03-25T20:11:52.486Z,4.54
2018-03-25T20:14:18.590Z,4.55
2018-03-25T20:16:44.624Z,4.54
2018-03-25T20:19:10.629Z,4.68
2018-03-25T20:21:36.765Z,4.62
2018-03-25T20:24:02.858Z,4.63
2018-03-25T20:26:28.877Z,4.40
2018-03-25T20:28:54.883Z,4.15
2018-03-25T20:31:21.275Z,4.05
2018-03-25T20:33:47.325Z,3.72
2018-03-25T20:36:13.374Z,3.58
2018-03-25T20:38:39.577Z,3.56
2018-03-25T20:41:05.671Z,3.63
2018-03-25T20:43:42.767Z,3.48
2018-03-25T20:46:08.763Z,3.69
2018-03-25T20:48:34.821Z,3.60
2018-03-25T20:51:01.661Z,3.75
2018-03-25T20:53:27.777Z,3.60
2018-03-25T20:55:53.817Z,3.26
2018-03-25T20:58:19.861Z,3.15
2018-03-25T21:00:45.878Z,3.09
2018-03-25T21:03:11.866Z,3.04
2018-03-25T21:05:37.939Z,2.89
2018-03-25T21:08:03.962Z,2.65
2018-03-25T21:10:30.020Z,2.72
2018-03-25T21:12:56.030Z,2.78
2018-03-25T21:15:22.104Z,2.84
2018-03-25T21:17:48.110Z,2.93
2018-03-25T21:20:14.186Z,2.51
2018-03-25T21:22:40.227Z,2.44
2018-03-25T21:25:06.300Z,2.43
2018-03-25T21:27:32.453Z,2.24
2018-03-25T21:29:58.519Z,2.00
2018-03-25T21:32:25.089Z,1.93
2018-03-25T21:34:51.185Z,1.82
2018-03-25T21:37:17.270Z,1.76
2018-03-25T21:39:43.302Z,1.56
2018-03-25T21:42:09.303Z,1.57
2018-03-25T21:44:35.377Z,1.71
2018-03-25T21:47:01.412Z,2.04
2018-03-25T21:49:27.441Z,1.93
2018-03-25T21:51:53.469Z,1.77
2018-03-25T21:54:19.499Z,1.59
2018-03-25T21:56:46.589Z,1.62
2018-03-25T21:59:12.577Z,1.95
2018-03-25T22:01:38.653Z,2.05
2018-03-25T22:04:04.624Z,2.10
2018-03-25T22:06:30.649Z,1.71
2018-03-25T22:08:56.713Z,1.41
2018-03-25T22:11:22.770Z,1.38
2018-03-25T22:13:48.761Z,1.33
2018-03-25T22:16:15.019Z,1.38
2018-03-25T22:18:53.335Z,1.17
2018-03-25T22:21:19.350Z,1.41
2018-03-25T22:23:45.352Z,1.55
2018-03-25T22:26:11.346Z,1.69
2018-03-25T22:28:37.385Z,1.75
2018-03-25T22:31:03.477Z,1.81
2018-03-25T22:33:29.484Z,1.68
2018-03-25T22:35:55.458Z,1.49
2018-03-25T22:38:21.472Z,1.87
2018-03-25T22:40:47.482Z,1.81
2018-03-25T22:43:13.525Z,1.85
2018-03-25T22:45:39.534Z,1.72
2018-03-25T22:48:05.589Z,1.61
2018-03-25T22:50:31.583Z,1.53
2018-03-25T22:52:57.745Z,1.62
2018-03-25T22:55:23.861Z,1.55
2018-03-25T22:57:49.915Z,1.46
2018-03-25T23:00:15.898Z,1.39
2018-03-25T23:02:41.905Z,1.44
2018-03-25T23:05:14.937Z,1.45
2018-03-25T23:07:40.930Z,1.51
2018-03-25T23:10:06.957Z,1.51
2018-03-25T23:12:32.960Z,1.17
2018-03-25T23:14:58.992Z,1.22
2018-03-25T23:17:24.984Z,1.14
2018-03-25T23:19:51.013Z,0.94
2018-03-25T23:22:17.098Z,0.86
2018-03-25T23:24:43.198Z,0.72
2018-03-25T23:27:09.194Z,0.76
2018-03-25T23:29:35.274Z,0.72
2018-03-25T23:32:01.467Z,0.70
2018-03-25T23:34:27.514Z,0.71
2018-03-25T23:36:53.554Z,0.59
2018-03-25T23:39:19.570Z,0.70
2018-03-25T23:41:45.598Z,0.66
2018-03-25T23:44:11.592Z,0.65
2018-03-25T23:46:37.607Z,0.58
2018-03-25T23:49:03.613Z,0.74
2018-03-25T23:51:29.613Z,0.77
2018-03-25T23:53:55.649Z,0.84
2018-03-25T23:56:21.611Z,0.73
2018-03-25T23:58:47.602Z,0.52
